Time;durP1;ratioP1;P1;durP2;ratioP2;P2;SDS_P1;SDS_P2;PMS_P1;PMS_P2;Temp;Humidity;BMP_temperature;BMP_pressure;BME280_temperature;BME280_humidity;BME280_pressure;Samples;Min_cycle;Max_cycle;Signal;HPM_P1;HPM_P2
2022/06/28 00:00:41;;;;;;;10.28;7.80;;;;;;;19.45;100.00;100008.42;1746019;81;21676;-64
2022/06/28 00:03:08;;;;;;;9.25;7.05;;;;;;;19.37;100.00;100016.90;1734072;81;21146;-63
2022/06/28 00:05:35;;;;;;;8.20;7.40;;;;;;;19.29;100.00;100014.94;1740153;81;21585;-63
2022/06/28 00:08:03;;;;;;;8.30;7.50;;;;;;;19.22;100.00;100011.27;1742432;81;21092;-63
2022/06/28 00:10:30;;;;;;;8.80;7.35;;;;;;;19.17;100.00;100017.49;1700287;83;21073;-63
2022/06/28 00:12:59;;;;;;;10.60;8.03;;;;;;;19.13;100.00;100017.92;1743082;81;21058;-63
2022/06/28 00:18:09;;;;;;;8.65;7.62;;;;;;;19.04;100.00;100013.75;1734296;81;21048;-62
2022/06/28 00:20:36;;;;;;;11.57;8.08;;;;;;;19.00;100.00;100016.08;1704931;84;21486;-63
2022/06/28 00:23:03;;;;;;;10.60;8.38;;;;;;;18.99;100.00;100016.64;1730888;81;21086;-63
2022/06/28 00:25:29;;;;;;;11.10;7.87;;;;;;;19.00;100.00;100013.32;1742503;81;21014;-63
2022/06/28 00:27:55;;;;;;;11.38;8.00;;;;;;;19.02;100.00;100014.65;1709382;83;21105;-61
2022/06/28 00:30:22;;;;;;;8.60;7.70;;;;;;;19.04;100.00;100019.83;1742165;81;21052;-60
2022/06/28 00:32:49;;;;;;;12.82;8.28;;;;;;;19.01;100.00;100021.29;1744758;81;21034;-62
2022/06/28 00:35:15;;;;;;;9.60;7.62;;;;;;;18.99;100.00;100015.86;1738363;81;21045;-62
2022/06/28 00:37:44;;;;;;;9.50;8.08;;;;;;;18.96;100.00;100013.71;1738218;81;21584;-62
2022/06/28 00:40:12;;;;;;;11.28;8.15;;;;;;;18.92;100.00;100013.54;1748004;81;21071;-63
2022/06/28 00:42:39;;;;;;;9.08;7.95;;;;;;;18.89;100.00;100017.76;1734302;81;20998;-63
2022/06/28 00:45:07;;;;;;;10.72;7.85;;;;;;;18.85;100.00;100019.53;1745093;82;21006;-62
2022/06/28 00:47:35;;;;;;;9.08;7.97;;;;;;;18.85;100.00;100026.98;1722882;82;21522;-62
2022/06/28 00:50:02;;;;;;;12.85;8.25;;;;;;;18.82;100.00;100013.84;1742985;81;21038;-62
2022/06/28 00:52:29;;;;;;;10.55;8.33;;;;;;;18.83;100.00;100022.37;1741866;81;21019;-63
2022/06/28 00:54:56;;;;;;;9.85;7.72;;;;;;;18.81;100.00;100018.53;1740697;81;21114;-62
2022/06/28 00:57:22;;;;;;;8.58;7.67;;;;;;;18.77;100.00;100012.06;1739517;81;21465;-63
2022/06/28 00:59:49;;;;;;;8.75;7.95;;;;;;;18.80;100.00;100020.25;1729837;81;21105;-63
2022/06/28 01:02:16;;;;;;;10.95;7.65;;;;;;;18.79;100.00;100018.62;1746503;81;21036;-62
2022/06/28 01:04:43;;;;;;;9.08;7.60;;;;;;;18.81;100.00;100020.51;1745530;81;21111;-63
2022/06/28 01:07:09;;;;;;;9.63;7.53;;;;;;;18.84;100.00;100019.86;1745704;81;21023;-62
2022/06/28 01:09:36;;;;;;;12.10;8.35;;;;;;;18.85;100.00;100020.91;1742913;81;21050;-63
2022/06/28 01:12:05;;;;;;;9.48;8.10;;;;;;;18.84;100.00;100015.73;1719980;82;21004;-62
2022/06/28 01:14:32;;;;;;;9.45;8.10;;;;;;;18.80;100.00;100011.98;1690795;83;21491;-63
2022/06/28 01:17:00;;;;;;;9.03;8.08;;;;;;;18.78;100.00;100007.33;1713983;82;21419;-63
2022/06/28 01:19:37;;;;;;;9.13;8.23;;;;;;;18.76;100.00;100002.71;1636900;83;21066;-63
2022/06/28 01:22:06;;;;;;;9.20;8.30;;;;;;;18.73;100.00;100000.03;1736383;82;21026;-62
2022/06/28 01:24:34;;;;;;;9.43;8.28;;;;;;;18.69;100.00;100001.80;1734488;82;21532;-62
2022/06/28 01:27:04;;;;;;;9.48;8.40;;;;;;;18.64;100.00;99994.22;1726170;82;21026;-62
2022/06/28 01:29:31;;;;;;;10.82;8.38;;;;;;;18.59;100.00;100004.03;1739009;82;21628;-63
2022/06/28 01:31:59;;;;;;;11.55;9.13;;;;;;;18.54;100.00;99993.13;1728017;82;21469;-63
2022/06/28 01:34:26;;;;;;;9.98;8.83;;;;;;;18.50;100.00;99996.23;1727175;82;21688;-62
2022/06/28 01:36:54;;;;;;;9.60;8.60;;;;;;;18.45;100.00;99996.40;1735921;82;21027;-63
2022/06/28 01:39:22;;;;;;;10.53;8.50;;;;;;;18.42;100.00;99997.03;1732042;82;21063;-63
2022/06/28 01:41:52;;;;;;;8.75;7.90;;;;;;;18.37;100.00;99993.84;1719994;82;21098;-62
2022/06/28 01:44:20;;;;;;;9.93;8.70;;;;;;;18.36;100.00;100000.48;1715738;82;21055;-62
2022/06/28 01:46:57;;;;;;;9.55;8.55;;;;;;;18.36;100.00;99997.72;1703392;82;21073;-63
2022/06/28 01:49:26;;;;;;;9.80;8.83;;;;;;;18.34;100.00;99995.30;1737219;82;21105;-62
2022/06/28 01:51:52;;;;;;;9.95;8.93;;;;;;;18.33;100.00;100001.12;1727947;82;21105;-61
2022/06/28 01:54:20;;;;;;;10.82;8.70;;;;;;;18.31;100.00;100004.20;1726992;82;21649;-62
2022/06/28 01:56:46;;;;;;;9.53;8.55;;;;;;;18.28;100.00;100002.05;1726300;82;21058;-63
2022/06/28 01:59:17;;;;;;;9.38;8.48;;;;;;;18.27;100.00;100003.20;1739635;82;21565;-62
2022/06/28 02:01:48;;;;;;;9.50;8.40;;;;;;;18.26;100.00;99994.68;1721881;82;21541;-62
2022/06/28 02:04:29;;;;;;;9.93;8.93;;;;;;;18.27;100.00;99998.25;1691532;83;21094;-62
2022/06/28 02:06:58;;;;;;;9.80;8.78;;;;;;;18.28;100.00;100002.05;1737121;82;21104;-62
2022/06/28 02:09:26;;;;;;;8.63;7.72;;;;;;;18.30;100.00;100002.57;1710627;82;21110;-62
2022/06/28 02:11:53;;;;;;;8.95;8.05;;;;;;;18.34;100.00;100002.19;1751283;81;21054;-62
2022/06/28 02:14:22;;;;;;;10.78;8.80;;;;;;;18.40;100.00;100008.36;1752335;81;21028;-62
2022/06/28 02:16:49;;;;;;;10.20;9.10;;;;;;;18.47;100.00;100005.97;1749863;81;21098;-62
2022/06/28 02:19:16;;;;;;;10.50;8.90;;;;;;;18.52;100.00;100003.12;1754111;80;21054;-62
2022/06/28 02:21:44;;;;;;;10.55;8.65;;;;;;;18.60;100.00;100002.91;1753139;81;21082;-62
2022/06/28 02:24:11;;;;;;;11.05;9.05;;;;;;;18.63;100.00;99998.13;1706705;82;21599;-62
2022/06/28 02:26:38;;;;;;;10.43;9.30;;;;;;;18.68;100.00;100004.30;1699263;84;21023;-62
2022/06/28 02:29:05;;;;;;;10.55;9.20;;;;;;;18.71;100.00;100000.09;1696666;82;21026;-63
2022/06/28 02:31:32;;;;;;;10.75;9.53;;;;;;;18.73;100.00;100001.98;1688377;84;21622;-62
2022/06/28 02:33:59;;;;;;;12.40;9.35;;;;;;;18.75;100.00;99999.70;1698000;83;21055;-62
2022/06/28 02:41:39;;;;;;;11.35;9.75;;;;;;;18.66;100.00;99994.17;1638018;84;21715;-62
2022/06/28 02:44:05;;;;;;;11.20;9.45;;;;;;;18.64;100.00;99996.98;1714589;83;21038;-62
2022/06/28 02:46:32;;;;;;;10.90;9.68;;;;;;;18.62;100.00;99997.31;1698923;84;21071;-62
2022/06/28 02:48:59;;;;;;;11.85;9.50;;;;;;;18.64;100.00;99998.36;1694296;84;21621;-62
2022/06/28 02:51:25;;;;;;;10.48;9.38;;;;;;;18.67;100.00;99994.98;1700197;84;21082;-62
2022/06/28 02:53:53;;;;;;;12.55;9.38;;;;;;;18.71;100.00;99994.57;1707153;83;21569;-61
2022/06/28 02:56:20;;;;;;;10.10;9.10;;;;;;;18.76;100.00;100006.29;1713097;82;21975;-62
2022/06/28 02:58:47;;;;;;;10.55;9.20;;;;;;;18.81;100.00;99999.23;1714838;82;21043;-62
2022/06/28 03:01:15;;;;;;;9.78;8.88;;;;;;;18.87;100.00;99993.84;1714200;82;21482;-62
2022/06/28 03:03:42;;;;;;;10.08;9.08;;;;;;;18.93;100.00;100000.00;1689200;85;21135;-62
2022/06/28 03:06:09;;;;;;;11.28;9.50;;;;;;;18.99;100.00;100000.09;1677059;85;21123;-62
2022/06/28 03:08:35;;;;;;;10.75;9.65;;;;;;;19.04;100.00;99997.75;1710013;82;21593;-62
2022/06/28 03:11:02;;;;;;;9.90;8.90;;;;;;;19.09;100.00;99995.67;1708237;82;21604;-63
2022/06/28 03:13:29;;;;;;;11.95;10.03;;;;;;;19.18;100.00;99995.67;1692614;84;21118;-62
2022/06/28 03:15:55;;;;;;;11.12;9.88;;;;;;;19.29;100.00;99993.66;1707424;82;21027;-62
2022/06/28 03:18:22;;;;;;;10.48;9.48;;;;;;;19.47;100.00;99990.95;1688993;83;21173;-62
2022/06/28 03:20:48;;;;;;;11.50;9.48;;;;;;;19.70;100.00;99989.62;1749698;81;21082;-63
2022/06/28 03:23:14;;;;;;;12.95;10.58;;;;;;;20.02;100.00;99992.44;1751685;81;21585;-62
2022/06/28 03:25:43;;;;;;;12.13;10.45;;;;;;;20.34;100.00;99986.37;1749715;81;21066;-62
2022/06/28 03:28:09;;;;;;;13.15;11.75;;;;;;;20.64;100.00;99981.14;1714837;82;21546;-62
2022/06/28 03:30:36;;;;;;;14.25;12.05;;;;;;;20.93;100.00;99985.87;1753553;81;21017;-62
2022/06/28 03:33:03;;;;;;;13.95;12.58;;;;;;;21.21;100.00;99980.11;1754772;81;21054;-62
2022/06/28 03:35:31;;;;;;;13.68;11.80;;;;;;;21.54;100.00;99977.39;1753550;81;21147;-62
2022/06/28 03:37:58;;;;;;;13.98;12.33;;;;;;;21.87;100.00;99982.16;1753053;81;21546;-63
2022/06/28 03:40:26;;;;;;;14.80;13.15;;;;;;;22.16;100.00;99972.36;1741116;81;20928;-62
2022/06/28 03:42:52;;;;;;;16.90;13.38;;;;;;;22.41;100.00;99967.09;1742553;81;21565;-62
2022/06/28 03:45:19;;;;;;;14.85;12.88;;;;;;;22.67;100.00;99964.03;1733887;81;21506;-62
2022/06/28 03:47:47;;;;;;;15.35;13.38;;;;;;;22.91;100.00;99963.20;1745257;81;21584;-62
2022/06/28 03:50:31;;;;;;;14.80;13.20;;;;;;;23.19;100.00;99961.31;1743893;81;21550;-62
2022/06/28 03:53:03;;;;;;;14.87;13.28;;;;;;;23.44;100.00;99960.12;1745664;81;21061;-62
2022/06/28 03:55:43;;;;;;;14.30;12.05;;;;;;;23.65;100.00;99954.38;1745233;81;21437;-62
2022/06/28 03:58:10;;;;;;;13.98;12.33;;;;;;;23.87;100.00;99952.44;1749831;81;21080;-62
2022/06/28 04:00:36;;;;;;;16.35;12.90;;;;;;;24.10;100.00;99949.86;1747054;81;21126;-63
2022/06/28 04:03:03;;;;;;;15.05;12.35;;;;;;;24.28;100.00;99938.08;1752491;81;21852;-62
2022/06/28 04:05:31;;;;;;;14.65;11.48;;;;;;;24.52;100.00;99939.05;1746348;81;21056;-63
2022/06/28 04:08:01;;;;;;;13.35;11.95;;;;;;;24.70;100.00;99925.80;1749181;81;21138;-62
2022/06/28 04:10:30;;;;;;;12.68;11.38;;;;;;;24.99;100.00;99928.70;1749814;81;21024;-63
2022/06/28 04:12:59;;;;;;;16.62;10.85;;;;;;;25.34;100.00;99934.82;1749664;81;21094;-62
2022/06/28 04:15:25;;;;;;;14.18;11.45;;;;;;;25.61;100.00;99928.28;1754215;81;21031;-63
2022/06/28 04:17:54;;;;;;;14.30;11.25;;;;;;;25.80;100.00;99925.46;1744320;81;21059;-62
2022/06/28 04:20:42;;;;;;;13.43;10.10;;;;;;;25.99;100.00;99928.23;1746498;81;21019;-63
2022/06/28 04:23:11;;;;;;;14.13;11.25;;;;;;;26.22;100.00;99914.31;1756934;80;21587;-62
2022/06/28 04:25:38;;;;;;;12.53;10.58;;;;;;;26.47;100.00;99928.11;1756602;81;20981;-63
2022/06/28 04:28:21;;;;;;;14.13;10.53;;;;;;;26.73;100.00;99924.54;1748372;81;21068;-63
2022/06/28 04:30:56;;;;;;;13.18;10.40;;;;;;;27.14;100.00;99926.38;1716896;82;21103;-62
2022/06/28 04:33:23;;;;;;;14.18;10.10;;;;;;;27.49;100.00;99926.69;1686898;83;21094;-63
2022/06/28 04:35:50;;;;;;;12.95;10.28;;;;;;;27.78;100.00;99930.60;1719339;82;21058;-63
2022/06/28 04:38:17;;;;;;;16.35;10.23;;;;;;;27.97;100.00;99925.64;1711451;82;21558;-63
2022/06/28 04:40:48;;;;;;;12.43;9.70;;;;;;;28.09;100.00;99929.58;1670134;85;21549;-63
2022/06/28 04:43:19;;;;;;;13.90;9.30;;;;;;;28.15;100.00;99922.46;1672110;84;21034;-64
2022/06/28 04:45:46;;;;;;;10.75;9.28;;;;;;;28.35;100.00;99923.63;1688336;84;20971;-63
2022/06/28 04:48:13;;;;;;;13.13;9.13;;;;;;;28.57;100.00;99910.83;1661804;84;21049;-64
2022/06/28 04:50:39;;;;;;;11.63;9.10;;;;;;;28.86;100.00;99920.88;1687055;83;21005;-64
2022/06/28 04:53:06;;;;;;;11.03;9.38;;;;;;;29.05;100.00;99915.00;1693244;84;21092;-62
2022/06/28 04:55:34;;;;;;;12.05;8.03;;;;;;;29.20;100.00;99918.66;1678072;84;21054;-62
2022/06/28 04:58:02;;;;;;;11.80;7.90;;;;;;;29.32;100.00;99922.58;1680106;83;21596;-62
2022/06/28 05:00:29;;;;;;;9.93;7.20;;;;;;;29.57;100.00;99915.08;1705033;84;21048;-62
2022/06/28 05:02:57;;;;;;;10.63;7.65;;;;;;;29.61;100.00;99916.70;1669750;85;21112;-62
2022/06/28 05:05:35;;;;;;;7.97;7.17;;;;;;;29.58;100.00;99912.48;1692237;82;21011;-61
2022/06/28 05:08:01;;;;;;;12.70;7.33;;;;;;;29.86;100.00;99908.99;1683824;83;21142;-64
2022/06/28 05:10:31;;;;;;;8.68;6.35;;;;;;;30.22;100.00;99902.22;1686900;84;21095;-63
2022/06/28 05:13:00;;;;;;;13.03;6.45;;;;;;;30.56;100.00;99895.05;1655697;85;21103;-63
2022/06/28 05:15:26;;;;;;;6.78;5.00;;;;;;;30.66;100.00;99898.23;1659055;85;21065;-63
2022/06/28 05:18:01;;;;;;;7.10;5.25;;;;;;;30.60;100.00;99890.83;1682064;84;21579;-65
2022/06/28 05:20:28;;;;;;;6.95;4.50;;;;;;;30.64;100.00;99888.02;1704879;82;21051;-66
2022/06/28 05:22:55;;;;;;;7.05;4.47;;;;;;;30.69;100.00;99894.62;1721906;83;21096;-65
2022/06/28 05:25:25;;;;;;;8.23;4.35;;;;;;;30.74;100.00;99884.39;1715783;82;21465;-66
2022/06/28 05:27:52;;;;;;;4.90;3.85;;;;;;;30.82;100.00;99883.18;1713282;82;21150;-65
2022/06/28 05:30:19;;;;;;;6.15;4.00;;;;;;;30.94;100.00;99880.73;1727015;82;21450;-66
2022/06/28 05:32:45;;;;;;;5.08;3.90;;;;;;;31.04;100.00;99881.34;1721368;82;21020;-68
2022/06/28 05:35:12;;;;;;;5.03;4.15;;;;;;;31.23;100.00;99883.48;1714907;82;20989;-64
2022/06/28 05:37:39;;;;;;;5.72;3.98;;;;;;;31.37;100.00;99880.63;1709811;82;21027;-64
2022/06/28 05:40:07;;;;;;;6.47;4.12;;;;;;;31.37;100.00;99884.23;1700505;84;20980;-65
2022/06/28 05:42:34;;;;;;;8.20;3.87;;;;;;;31.41;100.00;99885.63;1706403;82;21061;-65
2022/06/28 05:45:01;;;;;;;4.65;3.85;;;;;;;31.61;100.00;99882.55;1683342;83;21049;-66
2022/06/28 05:47:27;;;;;;;7.78;4.33;;;;;;;31.90;94.14;99883.98;1681735;84;21062;-65
2022/06/28 05:49:54;;;;;;;5.92;4.05;;;;;;;31.98;95.18;99884.75;1653396;86;21079;-64
2022/06/28 05:52:20;;;;;;;5.95;3.80;;;;;;;32.19;95.75;99892.27;1714851;82;21056;-64
2022/06/28 05:54:48;;;;;;;6.65;3.67;;;;;;;32.32;87.94;99884.92;1719138;82;21048;-65
2022/06/28 05:57:15;;;;;;;4.62;3.77;;;;;;;32.21;88.03;99896.27;1724553;82;21440;-63
2022/06/28 05:59:41;;;;;;;5.17;3.70;;;;;;;32.19;88.43;99895.09;1714425;82;21127;-63
2022/06/28 06:02:08;;;;;;;4.35;3.75;;;;;;;32.26;84.01;99896.44;1708738;82;21079;-62
2022/06/28 06:04:35;;;;;;;7.97;3.98;;;;;;;32.46;86.66;99895.47;1712625;82;21654;-62
2022/06/28 06:07:02;;;;;;;7.12;4.35;;;;;;;32.64;81.23;99897.34;1719195;83;21076;-62
2022/06/28 06:09:29;;;;;;;6.58;4.30;;;;;;;32.88;84.34;99885.02;1680525;83;21086;-64
2022/06/28 06:11:55;;;;;;;8.10;4.80;;;;;;;33.01;78.26;99879.06;1680591;83;22326;-65
2022/06/28 06:14:23;;;;;;;7.60;4.50;;;;;;;32.87;76.96;99886.27;1716435;83;21114;-65
2022/06/28 06:16:50;;;;;;;7.17;3.92;;;;;;;32.67;82.14;99881.81;1714916;83;21074;-64
2022/06/28 06:19:17;;;;;;;4.90;3.77;;;;;;;32.71;76.29;99876.14;1672963;84;21046;-65
2022/06/28 06:21:44;;;;;;;4.42;3.67;;;;;;;32.85;76.32;99874.59;1709357;82;21479;-66
2022/06/28 06:24:11;;;;;;;6.85;3.70;;;;;;;32.87;72.72;99871.56;1700606;83;21041;-66
2022/06/28 06:26:45;;;;;;;5.92;3.95;;;;;;;32.94;75.13;99872.90;1671813;84;21114;-66
2022/06/28 06:29:12;;;;;;;7.00;4.00;;;;;;;32.82;72.56;99879.05;1676011;84;21099;-66
2022/06/28 06:31:38;;;;;;;6.90;3.87;;;;;;;32.86;74.64;99877.00;1672796;84;21049;-66
2022/06/28 06:34:23;;;;;;;7.60;3.72;;;;;;;32.95;74.00;99880.12;1649621;86;21052;-66
2022/06/28 06:36:54;;;;;;;7.33;3.95;;;;;;;32.95;70.82;99868.03;1664331;85;21539;-68
2022/06/28 06:39:20;;;;;;;5.70;3.52;;;;;;;32.90;73.24;99871.33;1645078;85;21839;-64
2022/06/28 06:41:47;;;;;;;6.42;3.90;;;;;;;32.90;67.53;99871.33;1683093;84;21012;-65
2022/06/28 06:44:14;;;;;;;5.92;3.10;;;;;;;32.88;76.07;99868.11;1683543;84;21493;-66
2022/06/28 06:46:42;;;;;;;4.62;3.27;;;;;;;33.08;69.50;99870.53;1679798;85;21081;-65
2022/06/28 06:49:09;;;;;;;5.25;2.72;;;;;;;33.13;68.00;99873.50;1638286;86;21071;-69
2022/06/28 06:51:36;;;;;;;4.37;2.55;;;;;;;33.18;65.61;99873.05;1707433;83;21557;-69
2022/06/28 06:54:03;;;;;;;7.37;3.30;;;;;;;33.12;60.89;99876.16;1705806;82;21030;-67
2022/06/28 06:56:30;;;;;;;4.05;2.70;;;;;;;32.98;60.94;99865.81;1708212;82;21121;-65
2022/06/28 06:58:57;;;;;;;7.30;3.60;;;;;;;32.82;60.79;99864.96;1707524;83;21528;-66
2022/06/28 07:01:28;;;;;;;5.83;3.12;;;;;;;32.38;65.96;99872.01;1682124;85;21420;-65
2022/06/28 07:03:53;;;;;;;3.02;2.67;;;;;;;32.13;68.95;99867.98;1645042;84;21040;-66
2022/06/28 07:06:20;;;;;;;4.95;3.62;;;;;;;32.14;74.23;99868.77;1659335;85;21389;-65
2022/06/28 07:08:46;;;;;;;5.45;3.50;;;;;;;32.19;70.95;99867.73;1721433;82;21559;-66
2022/06/28 07:11:13;;;;;;;3.83;3.42;;;;;;;32.35;72.38;99867.18;1717149;82;21455;-65
2022/06/28 07:13:40;;;;;;;4.90;3.50;;;;;;;32.39;70.56;99868.77;1738220;81;21076;-66
2022/06/28 07:16:07;;;;;;;4.22;3.37;;;;;;;32.56;73.50;99873.44;1709792;83;20982;-64
2022/06/28 07:18:34;;;;;;;6.47;3.45;;;;;;;32.84;71.40;99874.42;1744864;81;21044;-67
2022/06/28 07:21:00;;;;;;;6.42;3.22;;;;;;;33.06;66.98;99877.18;1708938;84;21484;-64
2022/06/28 07:23:27;;;;;;;4.85;3.25;;;;;;;33.21;66.03;99876.44;1710611;84;21083;-66
2022/06/28 07:25:53;;;;;;;4.47;3.33;;;;;;;33.46;65.56;99881.16;1746125;81;21028;-63
2022/06/28 07:28:20;;;;;;;5.00;2.83;;;;;;;33.40;63.86;99873.80;1741486;81;21053;-65
2022/06/28 07:30:48;;;;;;;3.50;2.37;;;;;;;33.34;62.41;99873.24;1745734;81;21037;-64
2022/06/28 07:33:14;;;;;;;3.52;2.27;;;;;;;33.52;53.94;99875.23;1749518;81;21094;-65
2022/06/28 07:35:41;;;;;;;3.55;2.58;;;;;;;33.73;55.71;99875.61;1745494;82;21050;-64
2022/06/28 07:38:08;;;;;;;4.15;3.05;;;;;;;33.82;56.36;99880.10;1703211;83;21099;-66
2022/06/28 07:40:49;;;;;;;6.80;3.33;;;;;;;33.49;59.71;99879.70;1699828;82;21034;-64
2022/06/28 07:43:34;;;;;;;5.10;2.37;;;;;;;33.29;59.43;99880.17;1711087;82;21076;-64
2022/06/28 07:46:08;;;;;;;3.12;2.42;;;;;;;33.31;58.25;99885.38;1742378;81;21519;-63
2022/06/28 07:48:35;;;;;;;5.58;3.20;;;;;;;33.45;61.34;99881.77;1707799;83;21483;-64
2022/06/28 07:53:49;;;;;;;3.75;2.10;;;;;;;34.45;54.68;99887.60;1710512;83;21427;-64
2022/06/28 07:56:17;;;;;;;2.45;1.90;;;;;;;34.70;47.38;99881.55;1737570;82;21459;-66
2022/06/28 07:58:43;;;;;;;3.00;2.10;;;;;;;34.82;47.95;99877.30;1746760;81;21095;-64
2022/06/28 08:01:11;;;;;;;3.85;2.10;;;;;;;35.03;47.98;99883.16;1745770;81;21499;-65
2022/06/28 08:03:38;;;;;;;6.45;2.27;;;;;;;35.06;49.52;99880.27;1688157;84;21075;-64
2022/06/28 08:06:05;;;;;;;4.72;2.50;;;;;;;35.17;48.82;99878.66;1746209;82;20964;-66
2022/06/28 08:08:33;;;;;;;4.08;2.00;;;;;;;35.13;47.76;99875.91;1745730;82;21078;-66
2022/06/28 08:11:00;;;;;;;4.70;2.17;;;;;;;35.29;46.67;99883.05;1742291;81;21020;-67
2022/06/28 08:13:28;;;;;;;4.80;2.08;;;;;;;35.22;45.19;99878.14;1716640;82;21043;-64
2022/06/28 08:15:54;;;;;;;3.80;2.25;;;;;;;35.00;44.39;99879.79;1723211;82;20969;-65
2022/06/28 08:18:22;;;;;;;3.05;2.20;;;;;;;34.69;45.77;99882.77;1710515;83;21011;-63
2022/06/28 08:20:49;;;;;;;3.92;2.20;;;;;;;34.18;45.88;99884.64;1686145;84;21019;-65
2022/06/28 08:23:16;;;;;;;3.80;2.30;;;;;;;33.65;48.67;99886.19;1674329;84;21079;-65
2022/06/28 08:25:46;;;;;;;4.37;2.77;;;;;;;33.49;51.56;99878.91;1679415;85;21029;-65
2022/06/28 08:28:13;;;;;;;5.20;2.50;;;;;;;33.52;50.76;99878.86;1743135;81;21647;-65
2022/06/28 08:30:40;;;;;;;3.85;2.50;;;;;;;33.48;49.94;99879.52;1732015;82;20983;-66
2022/06/28 08:33:07;;;;;;;3.05;2.27;;;;;;;33.47;52.34;99873.70;1701128;83;21024;-65
2022/06/28 08:35:34;;;;;;;3.83;2.50;;;;;;;33.76;50.68;99874.75;1680479;84;21440;-64
2022/06/28 08:38:04;;;;;;;3.72;2.60;;;;;;;34.04;51.45;99864.45;1727737;80;21027;-65
2022/06/28 08:40:32;;;;;;;4.08;2.60;;;;;;;34.22;49.08;99872.06;1728312;82;21463;-64
2022/06/28 08:43:00;;;;;;;6.20;2.65;;;;;;;33.85;46.76;99871.58;1723735;81;21051;-65
2022/06/28 08:45:27;;;;;;;3.70;2.52;;;;;;;33.64;47.31;99869.67;1727637;82;20964;-66
2022/06/28 08:47:55;;;;;;;3.17;2.35;;;;;;;33.62;47.64;99870.11;1745282;81;21056;-67
2022/06/28 08:50:39;;;;;;;5.55;2.70;;;;;;;33.72;49.06;99865.53;1724809;82;21001;-65
2022/06/28 08:53:06;;;;;;;4.10;2.47;;;;;;;33.83;48.34;99857.10;1711469;83;21626;-67
2022/06/28 08:55:34;;;;;;;5.00;2.80;;;;;;;33.90;47.30;99859.02;1732447;82;21008;-66
2022/06/28 08:58:03;;;;;;;5.25;2.75;;;;;;;33.52;46.99;99859.10;1746380;81;21057;-66
2022/06/28 09:00:30;;;;;;;3.80;2.72;;;;;;;32.88;49.45;99864.69;1739628;82;21001;-67
2022/06/28 09:02:57;;;;;;;4.92;2.72;;;;;;;32.51;52.80;99873.09;1715817;81;21092;-67
2022/06/28 09:05:25;;;;;;;5.97;2.92;;;;;;;32.48;54.25;99869.70;1674388;84;21492;-65
2022/06/28 09:07:56;;;;;;;3.85;3.20;;;;;;;32.43;51.55;99868.73;1671920;84;21036;-67
2022/06/28 09:10:22;;;;;;;4.35;2.92;;;;;;;32.30;52.04;99869.05;1706572;83;20971;-67
2022/06/28 09:12:55;;;;;;;3.58;2.60;;;;;;;32.13;53.14;99875.02;1714571;81;21638;-67
2022/06/28 09:15:17;;;;;;;4.97;2.77;;;;;;;32.00;58.52;99867.62;1759877;81;20997;-67
2022/06/28 09:17:44;;;;;;;3.20;2.90;;;;;;;32.14;55.59;99867.35;1716937;81;21462;-67
2022/06/28 09:20:10;;;;;;;3.45;3.10;;;;;;;32.24;57.25;99867.91;1736662;82;20983;-66
2022/06/28 09:22:41;;;;;;;3.25;2.62;;;;;;;32.35;52.79;99861.55;1746356;81;21349;-67
2022/06/28 09:27:08;;;;;;;4.75;3.30;;;;;;;32.53;51.64;99853.73;1791408;78;22934;-65
2022/06/28 09:29:47;;;;;;;4.62;3.08;;;;;;;32.50;54.93;99853.17;1776529;80;21042;-64
2022/06/28 09:32:15;;;;;;;5.12;3.15;;;;;;;32.44;52.52;99852.02;1780343;80;21004;-65
2022/06/28 09:34:56;;;;;;;5.30;3.25;;;;;;;32.39;52.90;99846.83;1708359;81;21049;-64
2022/06/28 09:37:50;;;;;;;3.25;2.70;;;;;;;32.24;50.21;99842.55;1742678;81;20956;-66
2022/06/28 09:40:25;;;;;;;3.35;2.70;;;;;;;32.28;52.56;99841.89;1742701;82;21046;-67
2022/06/28 09:43:15;;;;;;;6.10;3.20;;;;;;;32.51;53.52;99837.88;1736405;81;21109;-66
2022/06/28 09:45:46;;;;;;;4.65;2.70;;;;;;;32.50;51.62;99840.49;1716337;81;20998;-67
2022/06/28 09:48:18;;;;;;;4.50;2.90;;;;;;;32.22;50.22;99831.69;1724766;82;21618;-67
2022/06/28 09:50:46;;;;;;;4.45;3.10;;;;;;;31.91;54.93;99827.89;1733667;83;21045;-67
2022/06/28 09:53:15;;;;;;;5.30;3.50;;;;;;;31.89;60.08;99820.45;1727845;83;21098;-65
2022/06/28 09:55:42;;;;;;;4.05;3.00;;;;;;;32.03;63.77;99823.76;1726017;83;21513;-68
2022/06/28 09:58:09;;;;;;;4.50;3.72;;;;;;;32.18;56.62;99818.84;1726468;83;21087;-67
2022/06/28 10:00:39;;;;;;;4.42;3.22;;;;;;;32.06;59.72;99816.72;1730093;83;21842;-66
2022/06/28 10:03:04;;;;;;;4.17;3.45;;;;;;;31.95;61.37;99803.94;1714911;82;20981;-67
2022/06/28 10:05:32;;;;;;;4.03;3.50;;;;;;;31.93;63.13;99813.39;1707105;83;21524;-66
2022/06/28 10:07:59;;;;;;;6.22;3.52;;;;;;;31.97;61.74;99805.11;1719071;83;21035;-66
2022/06/28 10:10:25;;;;;;;3.90;3.50;;;;;;;32.11;62.16;99807.04;1734024;83;21066;-65
2022/06/28 10:15:40;;;;;;;3.80;3.40;;;;;;;32.32;59.56;99797.59;1732004;83;20978;-66
2022/06/28 10:18:16;;;;;;;4.70;3.67;;;;;;;32.42;58.42;99796.69;1715756;82;21032;-67
2022/06/28 10:20:46;;;;;;;6.17;3.65;;;;;;;32.54;58.50;99795.57;1719304;83;21605;-66
2022/06/28 10:23:37;;;;;;;3.92;3.52;;;;;;;32.71;59.31;99792.39;1725151;82;21020;-66
2022/06/28 10:26:18;;;;;;;3.83;3.40;;;;;;;32.76;54.89;99794.77;1702653;82;21509;-66
2022/06/28 10:29:07;;;;;;;4.08;3.30;;;;;;;32.78;53.57;99793.72;1666521;85;21042;-66
2022/06/28 10:31:37;;;;;;;3.90;3.42;;;;;;;32.84;54.84;99797.67;1652439;85;21653;-67
2022/06/28 10:34:08;;;;;;;4.30;3.20;;;;;;;32.90;54.47;99800.84;1678261;84;21075;-67
2022/06/28 10:36:48;;;;;;;3.22;2.92;;;;;;;32.84;54.12;99801.13;1687577;84;21018;-66
2022/06/28 10:39:20;;;;;;;4.05;3.20;;;;;;;32.82;53.75;99799.32;1678422;85;21104;-66
2022/06/28 10:41:53;;;;;;;3.52;3.22;;;;;;;32.79;49.44;99791.70;1675863;85;21631;-67
2022/06/28 10:44:29;;;;;;;4.60;3.70;;;;;;;32.74;50.79;99795.78;1682796;85;21588;-66
2022/06/28 10:47:07;;;;;;;4.83;3.25;;;;;;;32.76;50.36;99790.53;1679965;84;21495;-65
2022/06/28 10:49:54;;;;;;;4.40;3.27;;;;;;;32.91;53.65;99791.95;1677444;83;21034;-66
2022/06/28 10:52:33;;;;;;;3.90;3.20;;;;;;;33.00;47.82;99778.16;1706765;83;21546;-67
2022/06/28 10:55:05;;;;;;;4.78;3.65;;;;;;;33.02;50.07;99779.13;1700479;83;21009;-65
2022/06/28 10:57:38;;;;;;;4.42;3.50;;;;;;;33.07;50.26;99772.23;1698974;84;20977;-66
2022/06/28 11:00:21;;;;;;;3.70;3.40;;;;;;;33.13;50.55;99779.02;1707777;83;20975;-67
2022/06/28 11:02:56;;;;;;;4.83;3.08;;;;;;;33.13;51.42;99771.37;1706636;82;21015;-66
2022/06/28 11:05:24;;;;;;;6.37;3.50;;;;;;;33.06;51.11;99768.61;1691303;83;20995;-66
2022/06/28 11:08:00;;;;;;;4.00;3.55;;;;;;;32.97;51.19;99773.97;1668795;84;21109;-66
2022/06/28 11:10:29;;;;;;;4.28;3.80;;;;;;;32.85;49.48;99771.69;1697704;84;21463;-68
2022/06/28 11:13:18;;;;;;;4.65;3.62;;;;;;;32.69;50.12;99768.67;1690949;84;21518;-65
2022/06/28 11:15:45;;;;;;;4.45;3.30;;;;;;;32.68;50.87;99767.06;1699902;84;21029;-66
2022/06/28 11:18:17;;;;;;;4.03;3.60;;;;;;;32.73;52.28;99757.56;1689854;85;21058;-66
2022/06/28 11:20:44;;;;;;;4.87;3.58;;;;;;;32.77;51.29;99754.06;1692944;84;21007;-67
2022/06/28 11:23:23;;;;;;;5.75;3.58;;;;;;;32.83;51.28;99755.83;1696870;83;21718;-66
2022/06/28 11:29:01;;;;;;;3.98;3.30;;;;;;;32.56;50.25;99759.91;1702787;84;21484;-65
2022/06/28 11:31:32;;;;;;;3.98;3.58;;;;;;;32.29;52.31;99764.03;1694460;84;21013;-66
2022/06/28 11:33:59;;;;;;;8.10;3.52;;;;;;;32.16;53.46;99757.33;1695909;84;21055;-66
2022/06/28 11:36:32;;;;;;;6.97;4.10;;;;;;;32.29;54.15;99754.78;1701584;84;21032;-66
2022/06/28 11:39:04;;;;;;;3.95;3.55;;;;;;;32.48;53.57;99754.98;1702446;83;21089;-66
2022/06/28 11:41:31;;;;;;;3.90;3.50;;;;;;;32.51;52.94;99763.20;1710697;83;21051;-66
2022/06/28 11:43:58;;;;;;;4.05;3.65;;;;;;;32.27;52.89;99765.06;1711101;83;21022;-65
2022/06/28 11:46:27;;;;;;;4.40;3.80;;;;;;;32.01;53.93;99762.86;1689775;85;21083;-66
2022/06/28 11:48:54;;;;;;;6.35;3.67;;;;;;;31.75;55.24;99758.63;1693707;85;21526;-66
2022/06/28 11:51:29;;;;;;;4.00;3.60;;;;;;;31.67;57.35;99761.94;1677919;85;21055;-66